KCVN/CVN METAR and TAF weather

Enter ICAO airport designator
Station Type Date Time Source
KCVN METAR 2018/07/21 10:56 UTC NOAA

KCVN 211056Z AUTO 26008KT 10SM CLR 20/09 A3015 RMK AO2 SLP158 T02000094 TSNO


Station Type Date Time Source
KCVN Decoded METAR 2018/07/21 10:56 UTC NOAA

Clovis, Clovis Municipal Airport, NM, United States (KCVN) 34-26N 103-05W
Jul 21, 2018 - 06:56 AM EDT / 2018.07.21 1056 UTC
Wind: from the W (260 degrees) at 9 MPH (8 KT):0
Visibility: 10 mile(s):0
Sky conditions: clear
Temperature: 68.0 F (20.0 C)
Dew Point: 48.9 F (9.4 C)
Relative Humidity: 50%
Pressure (altimeter): 30.15 in. Hg (1020 hPa)
ob: KCVN 211056Z AUTO 26008KT 10SM CLR 20/09 A3015 RMK AO2 SLP158 T02000094 TSNO
cycle: 11

Station Type Date Time Source
KCVN TAF UTC NOAA

Error!


Example: see airport list